createdAt,value
2017-12-20T00:02:19.084Z,88.30
2017-12-20T00:04:47.235Z,88.40
2017-12-20T00:07:15.355Z,88.60
2017-12-20T00:09:44.292Z,85.60
2017-12-20T00:12:12.433Z,85.60
2017-12-20T00:14:41.325Z,85.80
2017-12-20T00:17:09.507Z,85.80
2017-12-20T00:19:37.660Z,86.30
2017-12-20T00:22:06.588Z,86.00
2017-12-20T00:24:35.557Z,86.00
2017-12-20T00:27:04.699Z,86.00
2017-12-20T00:29:32.806Z,86.00
2017-12-20T00:32:00.959Z,86.30
2017-12-20T00:34:29.100Z,86.40
2017-12-20T00:36:57.236Z,86.50
2017-12-20T00:39:26.129Z,86.60
2017-12-20T00:41:55.059Z,87.10
2017-12-20T00:44:23.212Z,87.10
2017-12-20T00:46:52.118Z,87.20
2017-12-20T00:49:20.260Z,87.20
2017-12-20T00:51:49.172Z,87.70
2017-12-20T00:54:17.297Z,87.70
2017-12-20T00:56:45.444Z,86.60
2017-12-20T00:59:13.592Z,87.00
2017-12-20T01:01:41.748Z,87.20
2017-12-20T01:04:09.898Z,87.30
2017-12-20T01:06:38.048Z,87.80
2017-12-20T01:09:06.286Z,88.00
2017-12-20T01:11:34.461Z,87.30
2017-12-20T01:14:02.885Z,86.80
2017-12-20T01:16:31.035Z,86.90
2017-12-20T01:18:59.163Z,86.80
2017-12-20T01:21:28.072Z,85.40
2017-12-20T01:23:56.963Z,84.70
2017-12-20T01:26:26.075Z,84.50
2017-12-20T01:28:54.203Z,84.50
2017-12-20T01:31:22.374Z,85.30
2017-12-20T01:33:50.500Z,86.10
2017-12-20T01:36:18.649Z,85.90
2017-12-20T01:38:47.541Z,85.10
2017-12-20T01:41:16.476Z,85.70
2017-12-20T01:43:44.609Z,85.70
2017-12-20T01:46:12.770Z,86.70
2017-12-20T01:48:41.648Z,88.90
2017-12-20T01:51:09.810Z,88.80
2017-12-20T01:53:37.922Z,88.60
2017-12-20T01:56:06.074Z,87.80
2017-12-20T01:58:34.982Z,88.60
2017-12-20T02:01:03.911Z,88.30
2017-12-20T02:03:32.047Z,88.30
2017-12-20T02:06:00.955Z,86.20
2017-12-20T02:08:29.083Z,86.20
2017-12-20T02:10:57.258Z,86.00
2017-12-20T02:13:25.380Z,86.40
2017-12-20T02:15:53.535Z,86.80
2017-12-20T02:18:21.667Z,86.60
2017-12-20T02:20:49.819Z,86.80
2017-12-20T02:23:17.962Z,87.00
2017-12-20T02:25:46.149Z,86.90
2017-12-20T02:28:14.268Z,87.00
2017-12-20T02:30:42.432Z,86.90
2017-12-20T02:33:22.226Z,87.00
2017-12-20T02:35:51.137Z,88.70
2017-12-20T02:38:37.672Z,88.70
2017-12-20T02:41:09.597Z,89.00
2017-12-20T02:43:41.511Z,88.70
2017-12-20T02:46:10.447Z,86.30
2017-12-20T02:48:38.609Z,86.30
2017-12-20T02:51:06.764Z,86.10
2017-12-20T02:53:35.669Z,85.50
2017-12-20T02:56:04.803Z,85.40
2017-12-20T02:58:32.986Z,85.50
2017-12-20T03:01:01.148Z,85.70
2017-12-20T03:03:29.277Z,86.20
2017-12-20T03:05:58.192Z,86.70
2017-12-20T03:08:26.316Z,86.60
2017-12-20T03:10:54.480Z,86.20
2017-12-20T03:13:22.599Z,86.70
2017-12-20T03:15:50.752Z,87.20
2017-12-20T03:18:18.898Z,87.70
2017-12-20T03:20:47.074Z,87.90
2017-12-20T03:23:15.197Z,88.10
2017-12-20T03:25:43.379Z,88.10
2017-12-20T03:28:11.508Z,87.10
2017-12-20T03:30:39.641Z,86.90
2017-12-20T03:33:07.800Z,86.20
2017-12-20T03:35:35.932Z,86.10
2017-12-20T03:38:04.336Z,86.80
2017-12-20T03:40:32.589Z,85.70
2017-12-20T03:43:01.517Z,86.00
2017-12-20T03:45:29.648Z,85.90
2017-12-20T03:47:57.816Z,87.00
2017-12-20T03:50:25.951Z,87.50
2017-12-20T03:52:54.123Z,87.80
2017-12-20T03:55:22.252Z,87.80
2017-12-20T03:57:50.413Z,88.30
2017-12-20T04:00:18.551Z,88.80
2017-12-20T04:02:46.708Z,88.30
2017-12-20T04:05:14.838Z,87.60
2017-12-20T04:07:42.999Z,87.00
2017-12-20T04:10:11.127Z,86.30
2017-12-20T04:12:39.280Z,85.50
2017-12-20T04:15:08.192Z,85.20
2017-12-20T04:17:36.388Z,85.20
2017-12-20T04:20:04.890Z,85.80
2017-12-20T04:22:33.046Z,86.40
2017-12-20T04:25:01.192Z,86.40
2017-12-20T04:27:30.104Z,86.50
2017-12-20T04:29:58.232Z,86.50
2017-12-20T04:32:27.167Z,87.20
2017-12-20T04:34:55.613Z,87.30
2017-12-20T04:37:23.956Z,88.20
2017-12-20T04:39:52.090Z,88.90
2017-12-20T04:42:20.255Z,88.90
2017-12-20T04:44:49.145Z,87.00
2017-12-20T04:47:17.663Z,86.90
2017-12-20T04:49:45.852Z,86.10
2017-12-20T04:52:14.009Z,85.30
2017-12-20T04:54:42.164Z,85.20
2017-12-20T04:57:10.313Z,85.50
2017-12-20T04:59:39.201Z,85.90
2017-12-20T05:02:08.125Z,85.60
2017-12-20T05:04:36.256Z,85.60
2017-12-20T05:07:05.330Z,86.60
2017-12-20T05:09:33.473Z,86.60
2017-12-20T05:12:01.632Z,87.10
2017-12-20T05:14:29.751Z,86.80
2017-12-20T05:16:57.908Z,87.20
2017-12-20T05:19:26.044Z,87.10
2017-12-20T05:21:54.208Z,87.30
2017-12-20T05:24:23.115Z,87.40
2017-12-20T05:26:51.259Z,87.40
2017-12-20T05:29:20.163Z,87.90
2017-12-20T05:31:49.076Z,87.20
2017-12-20T05:34:17.196Z,87.20
2017-12-20T05:36:45.367Z,86.90
2017-12-20T05:39:13.496Z,87.20
2017-12-20T05:41:41.658Z,87.20
2017-12-20T05:44:09.790Z,87.30
2017-12-20T05:46:37.961Z,87.30
2017-12-20T05:49:06.267Z,87.60
2017-12-20T05:51:35.890Z,87.60
2017-12-20T05:54:04.130Z,87.60
2017-12-20T05:56:32.294Z,87.90
2017-12-20T05:59:00.424Z,87.90
2017-12-20T06:01:28.572Z,87.30
2017-12-20T06:03:57.547Z,86.70
2017-12-20T06:06:25.744Z,86.70
2017-12-20T06:08:54.649Z,86.60
2017-12-20T06:11:22.959Z,86.60
2017-12-20T06:13:51.103Z,87.20
2017-12-20T06:16:19.241Z,87.20
2017-12-20T06:18:47.396Z,87.20
2017-12-20T06:21:15.860Z,86.90
2017-12-20T06:23:43.999Z,87.00
2017-12-20T06:26:12.131Z,87.30
2017-12-20T06:28:40.307Z,87.30
2017-12-20T06:31:08.445Z,87.10
2017-12-20T06:33:36.601Z,86.80
2017-12-20T06:36:06.125Z,87.40
2017-12-20T06:38:34.271Z,88.20
2017-12-20T06:41:02.745Z,89.20
2017-12-20T06:43:30.954Z,88.00
2017-12-20T06:45:59.114Z,87.70
2017-12-20T06:48:27.275Z,86.50
2017-12-20T06:50:55.432Z,86.20
2017-12-20T06:53:23.596Z,86.50
2017-12-20T06:55:51.719Z,86.90
2017-12-20T06:58:19.901Z,86.80
2017-12-20T07:00:48.032Z,87.20
2017-12-20T07:03:16.950Z,87.40
2017-12-20T07:05:45.107Z,87.40
2017-12-20T07:08:13.282Z,87.60
2017-12-20T07:10:41.406Z,87.70
2017-12-20T07:13:09.576Z,87.10
2017-12-20T07:15:37.724Z,87.10
2017-12-20T07:18:05.892Z,86.80
2017-12-20T07:20:34.039Z,86.50
2017-12-20T07:23:02.965Z,86.70
2017-12-20T07:25:31.932Z,86.50
2017-12-20T07:28:00.327Z,86.50
2017-12-20T07:30:28.459Z,86.50
2017-12-20T07:32:57.390Z,86.80
2017-12-20T07:35:25.542Z,86.80
2017-12-20T07:37:54.460Z,87.30
2017-12-20T07:40:22.614Z,87.30
2017-12-20T07:42:50.772Z,87.20
2017-12-20T07:47:46.956Z,87.10
2017-12-20T07:50:15.134Z,87.10
2017-12-20T07:52:43.290Z,87.10
2017-12-20T07:55:11.426Z,87.90
2017-12-20T07:57:39.559Z,88.30
2017-12-20T08:00:07.695Z,88.70
2017-12-20T08:02:39.610Z,89.20
2017-12-20T08:05:07.727Z,88.60
2017-12-20T08:07:35.868Z,88.10
2017-12-20T08:10:04.366Z,87.20
2017-12-20T08:12:32.515Z,86.80
2017-12-20T08:15:00.653Z,86.10
2017-12-20T08:17:28.794Z,86.20
2017-12-20T08:19:56.911Z,86.90
2017-12-20T08:22:25.820Z,86.20
2017-12-20T08:24:53.946Z,86.20
2017-12-20T08:27:22.081Z,85.30
2017-12-20T08:29:50.196Z,86.10
2017-12-20T08:32:18.340Z,86.50
2017-12-20T08:34:46.483Z,85.90
2017-12-20T08:37:15.374Z,86.90
2017-12-20T08:39:43.507Z,86.90
2017-12-20T08:42:11.652Z,86.90
2017-12-20T08:44:39.809Z,85.50
2017-12-20T08:47:07.962Z,85.50
2017-12-20T08:49:36.867Z,84.60
2017-12-20T08:52:05.131Z,84.60
2017-12-20T08:54:34.051Z,84.00
2017-12-20T08:57:02.188Z,83.60
2017-12-20T08:59:31.099Z,84.20
2017-12-20T09:01:59.887Z,84.20
2017-12-20T09:04:28.049Z,84.70
2017-12-20T09:06:57.000Z,84.70
2017-12-20T09:09:25.115Z,84.70
2017-12-20T09:11:53.271Z,84.90
2017-12-20T09:14:22.184Z,85.30
2017-12-20T09:16:50.352Z,85.20
2017-12-20T09:19:19.248Z,85.20
2017-12-20T09:21:47.371Z,85.20
2017-12-20T09:24:15.554Z,84.60
2017-12-20T09:26:43.697Z,84.80
2017-12-20T09:29:11.834Z,84.30
2017-12-20T09:31:40.721Z,84.90
2017-12-20T09:34:09.623Z,84.20
2017-12-20T09:36:37.746Z,84.30
2017-12-20T09:39:05.882Z,84.40
2017-12-20T09:41:34.011Z,84.20
2017-12-20T09:44:02.255Z,84.40
2017-12-20T09:46:31.292Z,84.30
2017-12-20T09:49:00.226Z,84.40
2017-12-20T09:51:28.379Z,84.40
2017-12-20T09:53:56.529Z,84.20
2017-12-20T09:56:25.850Z,84.90
2017-12-20T09:58:54.167Z,84.90
2017-12-20T10:01:22.288Z,84.30
2017-12-20T10:03:50.450Z,83.00
2017-12-20T10:06:19.379Z,81.10
2017-12-20T10:08:47.520Z,81.20
2017-12-20T10:11:16.423Z,81.30
2017-12-20T10:13:44.601Z,81.30
2017-12-20T10:16:12.740Z,80.80
2017-12-20T10:18:40.884Z,81.90
2017-12-20T10:21:09.017Z,81.70
2017-12-20T10:23:37.176Z,82.30
2017-12-20T10:26:06.071Z,81.60
2017-12-20T10:28:34.991Z,81.90
2017-12-20T10:31:03.555Z,81.90
2017-12-20T10:33:32.342Z,82.90
2017-12-20T10:35:59.887Z,82.10
2017-12-20T10:38:28.793Z,81.50
2017-12-20T10:40:57.677Z,80.20
2017-12-20T10:43:26.602Z,79.30
2017-12-20T10:45:54.742Z,79.30
2017-12-20T10:48:23.699Z,79.20
2017-12-20T10:50:51.823Z,79.10
2017-12-20T10:53:20.750Z,79.50
2017-12-20T10:55:48.883Z,79.50
2017-12-20T10:58:17.789Z,80.00
2017-12-20T11:00:45.964Z,80.00
2017-12-20T11:03:14.112Z,80.20
2017-12-20T11:05:43.018Z,80.90
2017-12-20T11:08:11.948Z,80.70
2017-12-20T11:10:40.073Z,80.70
2017-12-20T11:13:08.996Z,80.60
2017-12-20T11:15:38.278Z,79.60
2017-12-20T11:18:06.527Z,80.40
2017-12-20T11:20:34.643Z,81.50
2017-12-20T11:23:02.800Z,80.30
2017-12-20T11:25:31.693Z,80.50
2017-12-20T11:27:59.846Z,80.60
2017-12-20T11:30:27.995Z,81.40
2017-12-20T11:32:56.147Z,80.50
2017-12-20T11:35:24.313Z,80.30
2017-12-20T11:37:52.466Z,80.60
2017-12-20T11:40:21.397Z,80.50
2017-12-20T11:42:49.536Z,80.50
2017-12-20T11:45:17.703Z,80.70
2017-12-20T11:47:46.573Z,80.30
2017-12-20T11:50:15.492Z,80.60
2017-12-20T11:52:43.622Z,80.60
2017-12-20T11:55:11.759Z,81.20
2017-12-20T11:57:39.887Z,81.70
2017-12-20T12:00:08.797Z,80.90
2017-12-20T12:02:37.753Z,80.90
2017-12-20T12:05:05.896Z,80.50
2017-12-20T12:07:34.020Z,81.30
2017-12-20T12:10:02.926Z,80.60
2017-12-20T12:12:31.044Z,80.50
2017-12-20T12:14:59.187Z,80.60
2017-12-20T12:17:27.311Z,80.50
2017-12-20T12:19:55.444Z,80.50
2017-12-20T12:22:24.787Z,80.50
2017-12-20T12:24:52.960Z,81.50
2017-12-20T12:27:21.090Z,82.50
2017-12-20T12:29:49.234Z,82.30
2017-12-20T12:32:17.363Z,81.40
2017-12-20T12:34:45.512Z,81.00
2017-12-20T12:37:13.637Z,81.00
2017-12-20T12:39:42.544Z,81.90
2017-12-20T12:42:11.419Z,82.10
2017-12-20T12:44:40.352Z,81.90
2017-12-20T12:47:08.472Z,81.90
2017-12-20T12:49:36.618Z,81.50
2017-12-20T12:52:04.756Z,82.00
2017-12-20T12:54:32.914Z,82.80
2017-12-20T12:57:01.799Z,82.30
2017-12-20T12:59:30.705Z,82.50
2017-12-20T13:01:58.844Z,82.50
2017-12-20T13:04:26.996Z,81.90
2017-12-20T13:06:55.137Z,81.30
2017-12-20T13:09:24.048Z,82.50
2017-12-20T13:11:52.170Z,82.50
2017-12-20T13:14:20.307Z,82.00
2017-12-20T13:16:48.436Z,81.90
2017-12-20T13:19:17.339Z,82.60
2017-12-20T13:21:46.237Z,82.90
2017-12-20T13:24:14.381Z,82.90
2017-12-20T13:26:42.525Z,83.50
2017-12-20T13:29:10.658Z,84.10
2017-12-20T13:31:38.778Z,84.40
2017-12-20T13:34:06.939Z,84.40
2017-12-20T13:36:35.067Z,84.70
2017-12-20T13:39:04.282Z,85.70
2017-12-20T13:41:32.440Z,85.70
2017-12-20T13:44:01.574Z,86.30
2017-12-20T13:46:29.786Z,86.30
2017-12-20T13:48:58.727Z,87.30
2017-12-20T13:51:26.848Z,86.60
2017-12-20T13:53:55.007Z,86.50
2017-12-20T13:56:23.131Z,86.50
2017-12-20T13:58:51.303Z,87.40
2017-12-20T14:01:19.423Z,86.90
2017-12-20T14:03:47.565Z,87.80
2017-12-20T14:06:15.695Z,88.30
2017-12-20T14:08:44.606Z,88.50
2017-12-20T14:11:13.497Z,88.70
2017-12-20T14:13:42.402Z,89.30
2017-12-20T14:16:10.544Z,88.70
2017-12-20T14:18:39.436Z,89.10
2017-12-20T14:21:08.384Z,88.80
2017-12-20T14:23:37.339Z,89.30
2017-12-20T14:26:05.498Z,89.00
2017-12-20T14:28:34.380Z,89.00
2017-12-20T14:31:03.010Z,89.00
2017-12-20T14:33:31.185Z,89.10
2017-12-20T14:35:59.326Z,89.00
2017-12-20T14:38:28.213Z,88.80
2017-12-20T14:40:56.363Z,88.70
2017-12-20T14:43:24.477Z,88.00
2017-12-20T14:45:53.382Z,87.80
2017-12-20T14:48:22.654Z,88.50
2017-12-20T14:50:51.568Z,87.50
2017-12-20T14:53:20.434Z,87.10
2017-12-20T14:55:48.575Z,87.10
2017-12-20T14:58:16.691Z,86.90
2017-12-20T15:00:45.621Z,87.70
2017-12-20T15:03:13.759Z,87.60
2017-12-20T15:05:43.232Z,87.30
2017-12-20T15:08:12.153Z,87.30
2017-12-20T15:10:41.058Z,88.00
2017-12-20T15:13:09.199Z,88.00
2017-12-20T15:15:37.357Z,88.40
2017-12-20T15:18:05.473Z,88.80
2017-12-20T15:20:34.387Z,88.80
2017-12-20T15:23:02.593Z,88.80
2017-12-20T15:25:30.765Z,88.40
2017-12-20T15:27:58.997Z,88.60
2017-12-20T15:30:27.158Z,89.00
2017-12-20T15:32:56.100Z,87.60
2017-12-20T15:35:24.257Z,87.50
2017-12-20T15:37:52.401Z,87.50
2017-12-20T15:40:21.395Z,87.60
2017-12-20T15:42:51.198Z,87.60
2017-12-20T15:45:19.346Z,87.90
2017-12-20T15:47:47.460Z,88.70
2017-12-20T15:50:15.635Z,87.70
2017-12-20T15:52:43.754Z,87.90
2017-12-20T15:55:11.897Z,87.70
2017-12-20T15:57:40.022Z,87.30
2017-12-20T16:00:08.212Z,87.90
2017-12-20T16:02:38.039Z,89.10
2017-12-20T16:05:06.958Z,88.40
2017-12-20T16:07:35.065Z,88.40
2017-12-20T16:10:03.790Z,89.20
2017-12-20T16:12:31.946Z,89.30
2017-12-20T16:15:00.091Z,89.50
2017-12-20T16:17:28.301Z,89.50
2017-12-20T16:19:57.209Z,90.00
2017-12-20T16:22:25.966Z,90.10
2017-12-20T16:24:54.127Z,90.40
2017-12-20T16:27:22.255Z,90.30
2017-12-20T16:29:50.438Z,90.20
2017-12-20T16:32:18.552Z,90.10
2017-12-20T16:34:46.691Z,89.10
2017-12-20T16:37:14.825Z,87.90
2017-12-20T16:39:43.721Z,87.30
2017-12-20T16:42:12.608Z,87.30
2017-12-20T16:44:41.527Z,87.10
2017-12-20T16:47:09.694Z,87.10
2017-12-20T16:49:37.830Z,86.60
2017-12-20T16:52:06.717Z,87.60
2017-12-20T16:54:35.643Z,88.70
2017-12-20T16:57:03.893Z,88.70
2017-12-20T16:59:32.819Z,89.60
2017-12-20T17:02:00.937Z,89.60
2017-12-20T17:04:29.083Z,89.30
2017-12-20T17:06:57.243Z,89.10
2017-12-20T17:09:25.358Z,89.10
2017-12-20T17:11:53.519Z,89.20
2017-12-20T17:14:21.625Z,88.80
2017-12-20T17:16:50.601Z,88.20
2017-12-20T17:19:18.711Z,88.20
2017-12-20T17:21:46.887Z,89.00
2017-12-20T17:24:15.006Z,89.70
2017-12-20T17:26:43.179Z,89.40
2017-12-20T17:29:11.294Z,89.00
2017-12-20T17:31:40.187Z,89.70
2017-12-20T17:34:09.082Z,89.40
2017-12-20T17:36:37.229Z,89.30
2017-12-20T17:39:05.358Z,88.10
2017-12-20T17:41:33.550Z,87.50
2017-12-20T17:44:01.984Z,87.90
2017-12-20T17:46:30.195Z,87.00
2017-12-20T17:48:58.319Z,87.70
2017-12-20T17:51:27.236Z,87.40
2017-12-20T17:53:55.360Z,87.40
2017-12-20T17:56:23.491Z,86.40
2017-12-20T17:58:51.626Z,86.80
2017-12-20T18:01:20.532Z,86.30
2017-12-20T18:03:49.413Z,85.90
2017-12-20T18:06:18.336Z,86.40
2017-12-20T18:08:46.472Z,86.40
2017-12-20T18:11:15.386Z,87.30
2017-12-20T18:13:43.508Z,87.20
2017-12-20T18:16:11.656Z,87.90
2017-12-20T18:18:39.787Z,88.20
2017-12-20T18:21:08.708Z,88.10
2017-12-20T18:23:36.821Z,88.10
2017-12-20T18:26:05.568Z,87.90
2017-12-20T18:28:34.376Z,87.00
2017-12-20T18:31:02.760Z,86.80
2017-12-20T18:33:30.912Z,87.10
2017-12-20T18:35:59.062Z,87.60
2017-12-20T18:38:27.982Z,87.00
2017-12-20T18:40:56.184Z,86.90
2017-12-20T18:43:24.320Z,86.60
2017-12-20T18:45:52.462Z,86.10
2017-12-20T18:48:20.572Z,85.80
2017-12-20T18:50:48.738Z,85.70
2017-12-20T18:53:16.842Z,86.00
2017-12-20T18:55:44.991Z,85.70
2017-12-20T18:58:13.109Z,85.40
2017-12-20T19:00:41.270Z,86.00
2017-12-20T19:03:09.418Z,86.00
2017-12-20T19:05:37.543Z,86.40
2017-12-20T19:08:06.434Z,87.50
2017-12-20T19:10:34.612Z,87.50
2017-12-20T19:13:02.757Z,86.90
2017-12-20T19:15:30.904Z,86.00
2017-12-20T19:17:59.056Z,86.30
2017-12-20T19:20:27.952Z,87.50
2017-12-20T19:22:56.084Z,87.50
2017-12-20T19:25:24.239Z,87.60
2017-12-20T19:27:52.400Z,86.60
2017-12-20T19:30:20.510Z,86.70
2017-12-20T19:32:49.417Z,88.00
2017-12-20T19:35:18.316Z,88.50
2017-12-20T19:37:47.217Z,89.00
2017-12-20T19:40:15.352Z,88.20
2017-12-20T19:42:43.500Z,87.70
2017-12-20T19:45:11.641Z,87.50
2017-12-20T19:47:39.846Z,86.80
2017-12-20T19:50:07.985Z,87.10
2017-12-20T19:52:36.158Z,86.80
2017-12-20T19:55:04.301Z,86.90
2017-12-20T19:57:32.450Z,87.40
2017-12-20T20:00:00.626Z,87.00
2017-12-20T20:02:28.789Z,86.20
2017-12-20T20:04:56.922Z,85.30
2017-12-20T20:07:25.819Z,85.50
2017-12-20T20:09:53.963Z,85.50
2017-12-20T20:12:22.173Z,85.80
2017-12-20T20:14:51.137Z,86.30
2017-12-20T20:17:20.092Z,86.60
2017-12-20T20:19:48.330Z,86.70
2017-12-20T20:22:16.471Z,87.30
2017-12-20T20:24:44.593Z,88.00
2017-12-20T20:27:12.740Z,88.50
2017-12-20T20:29:40.870Z,88.50
2017-12-20T20:32:09.249Z,88.60
2017-12-20T20:34:37.490Z,89.00
2017-12-20T20:37:05.649Z,89.60
2017-12-20T20:39:33.769Z,88.80
2017-12-20T20:42:02.246Z,88.70
2017-12-20T20:44:30.598Z,88.80
2017-12-20T20:46:58.748Z,89.30
2017-12-20T20:49:27.646Z,89.80
2017-12-20T20:51:55.803Z,89.80
2017-12-20T20:54:24.697Z,89.20
2017-12-20T20:56:53.648Z,89.50
2017-12-20T20:59:22.047Z,89.50
2017-12-20T21:01:50.182Z,88.30
2017-12-20T21:04:18.495Z,87.50
2017-12-20T21:06:46.631Z,87.50
2017-12-20T21:09:14.747Z,86.80
2017-12-20T21:11:42.893Z,87.60
2017-12-20T21:14:11.011Z,88.70
2017-12-20T21:16:39.157Z,89.10
2017-12-20T21:19:07.307Z,89.00
2017-12-20T21:21:35.438Z,89.10
2017-12-20T21:24:03.560Z,88.70
2017-12-20T21:26:31.717Z,89.00
2017-12-20T21:28:59.822Z,89.20
2017-12-20T21:31:27.966Z,89.70
2017-12-20T21:33:56.104Z,90.00
2017-12-20T21:36:25.019Z,89.40
2017-12-20T21:38:53.142Z,89.30
2017-12-20T21:41:21.283Z,89.20
2017-12-20T21:43:49.411Z,89.70
2017-12-20T21:46:18.311Z,89.40
2017-12-20T21:48:46.495Z,89.30
2017-12-20T21:51:14.643Z,89.10
2017-12-20T21:53:43.555Z,90.10
2017-12-20T21:56:12.423Z,90.00
2017-12-20T21:58:40.607Z,90.00
2017-12-20T22:01:08.914Z,89.10
2017-12-20T22:03:37.080Z,88.70
2017-12-20T22:06:05.316Z,88.70
2017-12-20T22:08:33.450Z,88.00
2017-12-20T22:11:01.566Z,87.80
2017-12-20T22:13:29.728Z,87.70
2017-12-20T22:15:57.841Z,87.70
2017-12-20T22:18:25.979Z,88.70
2017-12-20T22:20:54.097Z,89.40
2017-12-20T22:23:22.238Z,90.00
2017-12-20T22:25:51.129Z,89.60
2017-12-20T22:28:20.046Z,89.50
2017-12-20T22:30:48.173Z,89.50
2017-12-20T22:33:16.339Z,89.20
2017-12-20T22:35:44.524Z,89.60
2017-12-20T22:38:13.463Z,88.50
2017-12-20T22:40:41.583Z,88.40
2017-12-20T22:43:09.807Z,87.40
2017-12-20T22:45:38.682Z,87.40
2017-12-20T22:48:06.850Z,87.40
2017-12-20T22:50:35.754Z,89.20
2017-12-20T22:53:04.670Z,89.90
2017-12-20T22:55:32.799Z,89.80
2017-12-20T22:58:02.651Z,88.90
2017-12-20T23:00:32.626Z,89.50
2017-12-20T23:03:01.543Z,89.70
2017-12-20T23:05:30.422Z,89.80
2017-12-20T23:07:59.352Z,89.00
2017-12-20T23:10:27.490Z,89.00
2017-12-20T23:12:56.410Z,89.00
2017-12-20T23:15:24.584Z,89.00
2017-12-20T23:17:52.733Z,87.90
2017-12-20T23:20:20.879Z,88.00
2017-12-20T23:22:49.023Z,87.80
2017-12-20T23:25:17.141Z,87.90
2017-12-20T23:27:46.081Z,89.50
2017-12-20T23:30:14.207Z,89.40
2017-12-20T23:32:43.147Z,89.00
2017-12-20T23:35:11.288Z,89.00
2017-12-20T23:37:40.197Z,90.20
2017-12-20T23:40:08.338Z,90.20
2017-12-20T23:42:36.475Z,90.10
2017-12-20T23:45:04.586Z,90.30
2017-12-20T23:47:32.767Z,90.40
2017-12-20T23:50:01.642Z,89.80
2017-12-20T23:52:30.667Z,89.70
2017-12-20T23:54:58.823Z,89.70
2017-12-20T23:57:27.740Z,90.00
2017-12-20T23:59:55.855Z,89.90
